PWSweather.com
Personal Weather Stations
Station Observations
KAZTUCSO57
Countryside Manor, Tucson, AZ 85742

Countryside ManorTucson, AZ 85742

Lat: 32.3692, Lon: -111.066

Elevation: 2307

Station Type: Davis VP Pro+ 6163

http://frogville.us

Latest ConditionsUpdated 4:10:01 PM MST Tuesday, Mar 26, 2019
Currently Today's Max Today's Min Today's Average
Temperature 89.5°F31.9°C 92.5°F33.6°C 52.3°F11.3°C 68.4°F20.2°C
Dew Point 32.2°F0.1°C 38.7°F3.7°C 29.6°F-1.3°C 35.8°F2.1°C
Winds 1.2 mph W1.9 kmh W 3.5 mph -5.6 kmh - - 0.8 mph 1.3 kmh
Wind Gusts 2.3 mph3.7 kmh 5.8 mph9.3 kmh - -
Humidity 13% 56% 11% 35%
Pressure 29.81 in1009.5 mb 29.94 in1013.9 mb 29.81 in1009.5 mb -
Hour Temp Dew Point Humidity Winds Wind Gusts Pressure Precip Precip Rate Daily Precip Total
04:10 PM 89.5°F31.9°C 32.2°F0.1°C 13% 1.2 mph W1.9 kmh W 2.3 mph3.7 kmh 29.81 in1009.5 mb - 0.00 in0.0 mm 0.00 in0.0 mm
04:00 PM 89.9°F32.2°C 30.5°F-0.8°C 12% Calm Calm 3.5 mph5.6 kmh 29.82 in1009.8 mb - 0.00 in0.0 mm 0.00 in0.0 mm
03:50 PM 90.3°F32.4°C 30.8°F-0.7°C 12% Calm Calm 2.3 mph3.7 kmh 29.82 in1009.8 mb - 0.00 in0.0 mm 0.00 in0.0 mm
03:40 PM 91.6°F33.1°C 29.6°F-1.3°C 11% 3.5 mph SW5.6 kmh SW 5.8 mph9.3 kmh 29.82 in1009.8 mb - 0.00 in0.0 mm 0.00 in0.0 mm
03:30 PM 92.1°F33.4°C 32.2°F0.1°C 12% 2.3 mph W3.7 kmh W 4.6 mph7.4 kmh 29.82 in1009.8 mb - 0.00 in0.0 mm 0.00 in0.0 mm
03:20 PM 92.0°F33.3°C 32.1°F0.1°C 12% 2.3 mph SW3.7 kmh SW 3.5 mph5.6 kmh 29.82 in1009.8 mb - 0.00 in0.0 mm 0.00 in0.0 mm
03:10 PM 92.4°F33.6°C 32.4°F0.2°C 12% 3.5 mph W5.6 kmh W 4.6 mph7.4 kmh 29.82 in1009.8 mb - 0.00 in0.0 mm 0.00 in0.0 mm
03:00 PM 92.4°F33.6°C 32.4°F0.2°C 12% 1.2 mph W1.9 kmh W 3.5 mph5.6 kmh 29.83 in1010.2 mb - 0.00 in0.0 mm 0.00 in0.0 mm
02:50 PM 92.2°F33.4°C 32.3°F0.2°C 12% 3.5 mph W5.6 kmh W 4.6 mph7.4 kmh 29.83 in1010.2 mb - 0.00 in0.0 mm 0.00 in0.0 mm
02:40 PM 91.9°F33.3°C 32.0°F0.0°C 12% 3.5 mph WNW5.6 kmh WNW 3.5 mph5.6 kmh 29.84 in1010.5 mb - 0.00 in0.0 mm 0.00 in0.0 mm
02:30 PM 92.2°F33.4°C 32.3°F0.2°C 12% 2.3 mph WSW3.7 kmh WSW 3.5 mph5.6 kmh 29.83 in1010.2 mb - 0.00 in0.0 mm 0.00 in0.0 mm
02:20 PM 92.5°F33.6°C 32.5°F0.3°C 12% 1.2 mph NE1.9 kmh NE 3.5 mph5.6 kmh 29.84 in1010.5 mb - 0.00 in0.0 mm 0.00 in0.0 mm
02:10 PM 92.3°F33.5°C 32.3°F0.2°C 12% 2.3 mph SW3.7 kmh SW 4.6 mph7.4 kmh 29.84 in1010.5 mb - 0.00 in0.0 mm 0.00 in0.0 mm
02:00 PM 91.5°F33.1°C 31.7°F-0.2°C 12% 2.3 mph NW3.7 kmh NW 1.2 mph1.9 kmh 29.84 in1010.5 mb - 0.00 in0.0 mm 0.00 in0.0 mm
01:50 PM 90.4°F32.4°C 32.9°F0.5°C 13% Calm Calm 1.2 mph1.9 kmh 29.85 in1010.8 mb - 0.00 in0.0 mm 0.00 in0.0 mm
01:40 PM 90.3°F32.4°C 32.8°F0.4°C 13% 2.3 mph SW3.7 kmh SW 3.5 mph5.6 kmh 29.85 in1010.8 mb - 0.00 in0.0 mm 0.00 in0.0 mm
01:30 PM 89.5°F31.9°C 32.2°F0.1°C 13% 1.2 mph SSW1.9 kmh SSW 2.3 mph3.7 kmh 29.85 in1010.8 mb - 0.00 in0.0 mm 0.00 in0.0 mm
01:20 PM 89.0°F31.7°C 35.4°F1.9°C 15% 2.3 mph SW3.7 kmh SW 3.5 mph5.6 kmh 29.86 in1011.2 mb - 0.00 in0.0 mm 0.00 in0.0 mm
01:10 PM 89.0°F31.7°C 33.6°F0.9°C 14% Calm Calm 1.2 mph1.9 kmh 29.86 in1011.2 mb - 0.00 in0.0 mm 0.00 in0.0 mm
01:00 PM 88.1°F31.2°C 34.7°F1.5°C 15% 1.2 mph WNW1.9 kmh WNW 3.5 mph5.6 kmh 29.87 in1011.5 mb - 0.00 in0.0 mm 0.00 in0.0 mm
12:50 PM 86.8°F30.4°C 33.6°F0.9°C 15% Calm Calm 3.5 mph5.6 kmh 29.87 in1011.5 mb - 0.00 in0.0 mm 0.00 in0.0 mm
12:40 PM 85.4°F29.7°C 34.1°F1.2°C 16% Calm Calm 3.5 mph5.6 kmh 29.88 in1011.9 mb - 0.00 in0.0 mm 0.00 in0.0 mm
12:30 PM 83.8°F28.8°C 31.2°F-0.4°C 15% 1.2 mph SW1.9 kmh SW 2.3 mph3.7 kmh 29.88 in1011.9 mb - 0.00 in0.0 mm 0.00 in0.0 mm
12:20 PM 83.1°F28.4°C 33.8°F1.0°C 17% Calm Calm 1.2 mph1.9 kmh 29.88 in1011.9 mb - 0.00 in0.0 mm 0.00 in0.0 mm
12:10 PM 82.1°F27.8°C 34.4°F1.3°C 18% Calm Calm -- 29.89 in1012.2 mb - 0.00 in0.0 mm 0.00 in0.0 mm
12:00 PM 81.2°F27.3°C 33.6°F0.9°C 18% 1.2 mph SE1.9 kmh SE 2.3 mph3.7 kmh 29.89 in1012.2 mb - 0.00 in0.0 mm 0.00 in0.0 mm
11:50 AM 80.4°F26.9°C 33.0°F0.6°C 18% Calm Calm 1.2 mph1.9 kmh 29.90 in1012.5 mb - 0.00 in0.0 mm 0.00 in0.0 mm
11:40 AM 80.2°F26.8°C 35.5°F1.9°C 20% 1.2 mph SSE1.9 kmh SSE 2.3 mph3.7 kmh 29.91 in1012.9 mb - 0.00 in0.0 mm 0.00 in0.0 mm
11:30 AM 79.3°F26.3°C 34.8°F1.6°C 20% Calm Calm 2.3 mph3.7 kmh 29.91 in1012.9 mb - 0.00 in0.0 mm 0.00 in0.0 mm
11:20 AM 78.8°F26.0°C 34.3°F1.3°C 20% 1.2 mph SW1.9 kmh SW 2.3 mph3.7 kmh 29.90 in1012.5 mb - 0.00 in0.0 mm 0.00 in0.0 mm
11:10 AM 78.3°F25.7°C 36.3°F2.4°C 22% Calm Calm 2.3 mph3.7 kmh 29.90 in1012.5 mb - 0.00 in0.0 mm 0.00 in0.0 mm
11:00 AM 77.4°F25.2°C 35.5°F1.9°C 22% 1.2 mph SW1.9 kmh SW 3.5 mph5.6 kmh 29.91 in1012.9 mb - 0.00 in0.0 mm 0.00 in0.0 mm
10:50 AM 76.6°F24.8°C 37.1°F2.8°C 24% 1.2 mph SSW1.9 kmh SSW 3.5 mph5.6 kmh 29.91 in1012.9 mb - 0.00 in0.0 mm 0.00 in0.0 mm
10:40 AM 75.3°F24.1°C 37.1°F2.8°C 25% Calm Calm 1.2 mph1.9 kmh 29.91 in1012.9 mb - 0.00 in0.0 mm 0.00 in0.0 mm
10:30 AM 74.4°F23.6°C 36.3°F2.4°C 25% 1.2 mph S1.9 kmh S 3.5 mph5.6 kmh 29.91 in1012.9 mb - 0.00 in0.0 mm 0.00 in0.0 mm
10:20 AM 73.2°F22.9°C 38.1°F3.4°C 28% Calm Calm 1.2 mph1.9 kmh 29.91 in1012.9 mb - 0.00 in0.0 mm 0.00 in0.0 mm
10:10 AM 72.0°F22.2°C 37.1°F2.8°C 28% 1.2 mph NE1.9 kmh NE 2.3 mph3.7 kmh 29.91 in1012.9 mb - 0.00 in0.0 mm 0.00 in0.0 mm
10:00 AM 71.3°F21.8°C 37.4°F3.0°C 29% 1.2 mph SSW1.9 kmh SSW 2.3 mph3.7 kmh 29.92 in1013.2 mb - 0.00 in0.0 mm 0.00 in0.0 mm
09:50 AM 70.8°F21.6°C 37.8°F3.2°C 30% 1.2 mph S1.9 kmh S 2.3 mph3.7 kmh 29.92 in1013.2 mb - 0.00 in0.0 mm 0.00 in0.0 mm
09:40 AM 70.4°F21.3°C 37.5°F3.1°C 30% Calm Calm 2.3 mph3.7 kmh 29.92 in1013.2 mb - 0.00 in0.0 mm 0.00 in0.0 mm
09:30 AM 69.9°F21.1°C 37.0°F2.8°C 30% 1.2 mph E1.9 kmh E 2.3 mph3.7 kmh 29.92 in1013.2 mb - 0.00 in0.0 mm 0.00 in0.0 mm
09:20 AM 69.5°F20.8°C 36.7°F2.6°C 30% 1.2 mph E1.9 kmh E 2.3 mph3.7 kmh 29.93 in1013.5 mb - 0.00 in0.0 mm 0.00 in0.0 mm
09:10 AM 69.2°F20.7°C 37.3°F2.9°C 31% 1.2 mph ESE1.9 kmh ESE 3.5 mph5.6 kmh 29.93 in1013.5 mb - 0.00 in0.0 mm 0.00 in0.0 mm
09:00 AM 68.5°F20.3°C 38.2°F3.4°C 33% 1.2 mph SE1.9 kmh SE 2.3 mph3.7 kmh 29.93 in1013.5 mb - 0.00 in0.0 mm 0.00 in0.0 mm
08:50 AM 67.3°F19.6°C 38.7°F3.7°C 35% 1.2 mph NE1.9 kmh NE 2.3 mph3.7 kmh 29.92 in1013.2 mb - 0.00 in0.0 mm 0.00 in0.0 mm
08:40 AM 66.5°F19.2°C 38.7°F3.7°C 36% Calm Calm 3.5 mph5.6 kmh 29.93 in1013.5 mb - 0.00 in0.0 mm 0.00 in0.0 mm
08:30 AM 65.2°F18.4°C 38.2°F3.4°C 37% 1.2 mph NE1.9 kmh NE 1.2 mph1.9 kmh 29.93 in1013.5 mb - 0.00 in0.0 mm 0.00 in0.0 mm
08:20 AM 63.7°F17.6°C 37.6°F3.1°C 38% 1.2 mph ESE1.9 kmh ESE 3.5 mph5.6 kmh 29.93 in1013.5 mb - 0.00 in0.0 mm 0.00 in0.0 mm
08:10 AM 62.2°F16.8°C 38.2°F3.4°C 41% Calm Calm 1.2 mph1.9 kmh 29.92 in1013.2 mb - 0.00 in0.0 mm 0.00 in0.0 mm
08:00 AM 60.4°F15.8°C 38.3°F3.5°C 44% Calm Calm 1.2 mph1.9 kmh 29.92 in1013.2 mb - 0.00 in0.0 mm 0.00 in0.0 mm
07:50 AM 58.3°F14.6°C 38.1°F3.4°C 47% 1.2 mph SSE1.9 kmh SSE 2.3 mph3.7 kmh 29.92 in1013.2 mb - 0.00 in0.0 mm 0.00 in0.0 mm
07:40 AM 56.0°F13.3°C 38.7°F3.7°C 52% 1.2 mph NE1.9 kmh NE 3.5 mph5.6 kmh 29.91 in1012.9 mb - 0.00 in0.0 mm 0.00 in0.0 mm
07:30 AM 54.1°F12.3°C 38.2°F3.4°C 55% Calm Calm 1.2 mph1.9 kmh 29.91 in1012.9 mb - 0.00 in0.0 mm 0.00 in0.0 mm
07:20 AM 52.8°F11.6°C 37.5°F3.1°C 56% Calm Calm 1.2 mph1.9 kmh 29.91 in1012.9 mb - 0.00 in0.0 mm 0.00 in0.0 mm
07:10 AM 52.5°F11.4°C 37.2°F2.9°C 56% Calm Calm 1.2 mph1.9 kmh 29.91 in1012.9 mb - 0.00 in0.0 mm 0.00 in0.0 mm
07:00 AM 52.3°F11.3°C 37.1°F2.8°C 56% Calm Calm 1.2 mph1.9 kmh 29.91 in1012.9 mb - 0.00 in0.0 mm 0.00 in0.0 mm
06:50 AM 52.3°F11.3°C 36.6°F2.6°C 55% Calm Calm -- 29.91 in1012.9 mb - 0.00 in0.0 mm 0.00 in0.0 mm
06:40 AM 52.4°F11.3°C 36.7°F2.6°C 55% Calm Calm 1.2 mph1.9 kmh 29.91 in1012.9 mb - 0.00 in0.0 mm 0.00 in0.0 mm
06:30 AM 52.5°F11.4°C 35.8°F2.1°C 53% Calm Calm 1.2 mph1.9 kmh 29.91 in1012.9 mb - 0.00 in0.0 mm 0.00 in0.0 mm
06:20 AM 52.5°F11.4°C 35.8°F2.1°C 53% Calm Calm 1.2 mph1.9 kmh 29.90 in1012.5 mb - 0.00 in0.0 mm 0.00 in0.0 mm
06:10 AM 52.6°F11.4°C 35.9°F2.2°C 53% 1.2 mph NE1.9 kmh NE 1.2 mph1.9 kmh 29.90 in1012.5 mb - 0.00 in0.0 mm 0.00 in0.0 mm
06:00 AM 52.5°F11.4°C 35.8°F2.1°C 53% Calm Calm -- 29.90 in1012.5 mb - 0.00 in0.0 mm 0.00 in0.0 mm
05:50 AM 52.5°F11.4°C 36.3°F2.4°C 54% Calm Calm -- 29.90 in1012.5 mb - 0.00 in0.0 mm 0.00 in0.0 mm
05:40 AM 52.3°F11.3°C 36.1°F2.3°C 54% 1.2 mph NE1.9 kmh NE 2.3 mph3.7 kmh 29.90 in1012.5 mb - 0.00 in0.0 mm 0.00 in0.0 mm
05:30 AM 52.3°F11.3°C 36.1°F2.3°C 54% 1.2 mph NE1.9 kmh NE 3.5 mph5.6 kmh 29.91 in1012.9 mb - 0.00 in0.0 mm 0.00 in0.0 mm
05:20 AM 52.4°F11.3°C 36.2°F2.3°C 54% Calm Calm 1.2 mph1.9 kmh 29.90 in1012.5 mb - 0.00 in0.0 mm 0.00 in0.0 mm
05:10 AM 52.5°F11.4°C 36.8°F2.7°C 55% Calm Calm 1.2 mph1.9 kmh 29.90 in1012.5 mb - 0.00 in0.0 mm 0.00 in0.0 mm
05:00 AM 52.7°F11.5°C 36.5°F2.5°C 54% Calm Calm 1.2 mph1.9 kmh 29.90 in1012.5 mb - 0.00 in0.0 mm 0.00 in0.0 mm
04:50 AM 52.8°F11.6°C 36.6°F2.6°C 54% Calm Calm 2.3 mph3.7 kmh 29.90 in1012.5 mb - 0.00 in0.0 mm 0.00 in0.0 mm
04:40 AM 53.0°F11.7°C 36.8°F2.7°C 54% Calm Calm 1.2 mph1.9 kmh 29.90 in1012.5 mb - 0.00 in0.0 mm 0.00 in0.0 mm
04:30 AM 53.2°F11.8°C 37.0°F2.8°C 54% 1.2 mph NE1.9 kmh NE 2.3 mph3.7 kmh 29.90 in1012.5 mb - 0.00 in0.0 mm 0.00 in0.0 mm
04:20 AM 53.6°F12.0°C 36.9°F2.7°C 53% 1.2 mph NE1.9 kmh NE 3.5 mph5.6 kmh 29.90 in1012.5 mb - 0.00 in0.0 mm 0.00 in0.0 mm
04:10 AM 54.0°F12.2°C 36.8°F2.7°C 52% 1.2 mph NE1.9 kmh NE 2.3 mph3.7 kmh 29.90 in1012.5 mb - 0.00 in0.0 mm 0.00 in0.0 mm
04:00 AM 54.4°F12.4°C 37.1°F2.8°C 52% 1.2 mph NE1.9 kmh NE 2.3 mph3.7 kmh 29.90 in1012.5 mb - 0.00 in0.0 mm 0.00 in0.0 mm
03:50 AM 54.8°F12.7°C 37.0°F2.8°C 51% Calm Calm 1.2 mph1.9 kmh 29.90 in1012.5 mb - 0.00 in0.0 mm 0.00 in0.0 mm
03:40 AM 55.2°F12.9°C 36.9°F2.7°C 50% Calm Calm 2.3 mph3.7 kmh 29.90 in1012.5 mb - 0.00 in0.0 mm 0.00 in0.0 mm
03:30 AM 55.4°F13.0°C 37.1°F2.8°C 50% Calm Calm 1.2 mph1.9 kmh 29.91 in1012.9 mb - 0.00 in0.0 mm 0.00 in0.0 mm
03:20 AM 55.5°F13.1°C 36.6°F2.6°C 49% 1.2 mph NE1.9 kmh NE 3.5 mph5.6 kmh 29.91 in1012.9 mb - 0.00 in0.0 mm 0.00 in0.0 mm
03:10 AM 55.4°F13.0°C 36.6°F2.6°C 49% Calm Calm 1.2 mph1.9 kmh 29.91 in1012.9 mb - 0.00 in0.0 mm 0.00 in0.0 mm
03:00 AM 55.7°F13.2°C 36.8°F2.7°C 49% 1.2 mph NE1.9 kmh NE 2.3 mph3.7 kmh 29.91 in1012.9 mb - 0.00 in0.0 mm 0.00 in0.0 mm
02:50 AM 56.0°F13.3°C 37.1°F2.8°C 49% Calm Calm 1.2 mph1.9 kmh 29.91 in1012.9 mb - 0.00 in0.0 mm 0.00 in0.0 mm
02:40 AM 56.3°F13.5°C 37.4°F3.0°C 49% Calm Calm 2.3 mph3.7 kmh 29.91 in1012.9 mb - 0.00 in0.0 mm 0.00 in0.0 mm
02:30 AM 56.7°F13.7°C 37.2°F2.9°C 48% 1.2 mph NE1.9 kmh NE 3.5 mph5.6 kmh 29.91 in1012.9 mb - 0.00 in0.0 mm 0.00 in0.0 mm
02:20 AM 57.1°F13.9°C 37.0°F2.8°C 47% Calm Calm 1.2 mph1.9 kmh 29.92 in1013.2 mb - 0.00 in0.0 mm 0.00 in0.0 mm
02:10 AM 57.5°F14.2°C 36.8°F2.7°C 46% 1.2 mph NE1.9 kmh NE 1.2 mph1.9 kmh 29.92 in1013.2 mb - 0.00 in0.0 mm 0.00 in0.0 mm
02:00 AM 57.8°F14.3°C 36.6°F2.6°C 45% 1.2 mph NE1.9 kmh NE 2.3 mph3.7 kmh 29.93 in1013.5 mb - 0.00 in0.0 mm 0.00 in0.0 mm
01:50 AM 58.0°F14.4°C 36.8°F2.7°C 45% Calm Calm 1.2 mph1.9 kmh 29.93 in1013.5 mb - 0.00 in0.0 mm 0.00 in0.0 mm
01:40 AM 58.2°F14.6°C 37.0°F2.8°C 45% 1.2 mph E1.9 kmh E 2.3 mph3.7 kmh 29.93 in1013.5 mb - 0.00 in0.0 mm 0.00 in0.0 mm
01:30 AM 58.5°F14.7°C 36.6°F2.6°C 44% Calm Calm 1.2 mph1.9 kmh 29.93 in1013.5 mb - 0.00 in0.0 mm 0.00 in0.0 mm
01:20 AM 58.6°F14.8°C 36.7°F2.6°C 44% Calm Calm -- 29.93 in1013.5 mb - 0.00 in0.0 mm 0.00 in0.0 mm
01:10 AM 58.6°F14.8°C 37.3°F2.9°C 45% Calm Calm 2.3 mph3.7 kmh 29.93 in1013.5 mb - 0.00 in0.0 mm 0.00 in0.0 mm
01:00 AM 58.6°F14.8°C 37.3°F2.9°C 45% 1.2 mph NE1.9 kmh NE 2.3 mph3.7 kmh 29.93 in1013.5 mb - 0.00 in0.0 mm 0.00 in0.0 mm
12:50 AM 58.9°F14.9°C 37.6°F3.1°C 45% 2.3 mph ENE3.7 kmh ENE 2.3 mph3.7 kmh 29.93 in1013.5 mb - 0.00 in0.0 mm 0.00 in0.0 mm
12:40 AM 59.3°F15.2°C 37.4°F3.0°C 44% 1.2 mph NE1.9 kmh NE 2.3 mph3.7 kmh 29.93 in1013.5 mb - 0.00 in0.0 mm 0.00 in0.0 mm
12:30 AM 59.7°F15.4°C 37.7°F3.2°C 44% 1.2 mph ENE1.9 kmh ENE 2.3 mph3.7 kmh 29.93 in1013.5 mb - 0.00 in0.0 mm 0.00 in0.0 mm
12:20 AM 60.2°F15.7°C 38.2°F3.4°C 44% Calm Calm 1.2 mph1.9 kmh 29.93 in1013.5 mb - 0.00 in0.0 mm 0.00 in0.0 mm
12:10 AM 60.7°F15.9°C 38.1°F3.4°C 43% 1.2 mph NNE1.9 kmh NNE 1.2 mph1.9 kmh 29.93 in1013.5 mb - 0.00 in0.0 mm 0.00 in0.0 mm
12:00 AM 61.2°F16.2°C 37.3°F2.9°C 41% 1.2 mph N1.9 kmh N 2.3 mph3.7 kmh 29.94 in1013.9 mb - 0.00 in0.0 mm 0.00 in0.0 mm